sensor_id;sensor_type;location;lat;lon;timestamp;pressure;altitude;pressure_sealevel;temperature;humidity
6395;BME280;3230;42.588;23.358;2022-07-21T00:01:15;91445.25;;;17.54;70.60
6395;BME280;3230;42.588;23.358;2022-07-21T00:03:40;91436.22;;;17.55;70.25
6395;BME280;3230;42.588;23.358;2022-07-21T00:06:06;91445.72;;;17.56;70.46
6395;BME280;3230;42.588;23.358;2022-07-21T00:08:32;91446.34;;;17.53;69.90
6395;BME280;3230;42.588;23.358;2022-07-21T00:10:57;91437.94;;;17.51;70.10
6395;BME280;3230;42.588;23.358;2022-07-21T00:13:23;91439.94;;;17.54;70.86
6395;BME280;3230;42.588;23.358;2022-07-21T00:15:49;91439.47;;;17.52;70.60
6395;BME280;3230;42.588;23.358;2022-07-21T00:18:15;91433.81;;;17.45;71.05
6395;BME280;3230;42.588;23.358;2022-07-21T00:20:41;91433.50;;;17.38;70.89
6395;BME280;3230;42.588;23.358;2022-07-21T00:23:07;91427.41;;;17.37;71.30
6395;BME280;3230;42.588;23.358;2022-07-21T00:25:32;91427.72;;;17.36;70.69
6395;BME280;3230;42.588;23.358;2022-07-21T00:27:58;91437.25;;;17.37;71.52
6395;BME280;3230;42.588;23.358;2022-07-21T00:30:23;91431.28;;;17.31;71.04
6395;BME280;3230;42.588;23.358;2022-07-21T00:32:49;91430.78;;;17.29;71.06
6395;BME280;3230;42.588;23.358;2022-07-21T00:35:15;91430.78;;;17.29;70.83
6395;BME280;3230;42.588;23.358;2022-07-21T00:37:41;91437.47;;;17.26;70.75
6395;BME280;3230;42.588;23.358;2022-07-21T00:40:08;91427.88;;;17.31;70.21
6395;BME280;3230;42.588;23.358;2022-07-21T00:42:34;91428.81;;;17.35;71.31
6395;BME280;3230;42.588;23.358;2022-07-21T00:45:00;91431.28;;;17.31;71.34
6395;BME280;3230;42.588;23.358;2022-07-21T00:47:29;91434.38;;;17.24;72.05
6395;BME280;3230;42.588;23.358;2022-07-21T00:49:56;91432.50;;;17.25;71.89
6395;BME280;3230;42.588;23.358;2022-07-21T00:52:22;91434.97;;;17.21;72.64
6395;BME280;3230;42.588;23.358;2022-07-21T00:54:48;91436.19;;;17.15;73.26
6395;BME280;3230;42.588;23.358;2022-07-21T00:57:14;91436.19;;;17.15;72.50
6395;BME280;3230;42.588;23.358;2022-07-21T00:59:40;91434.28;;;17.07;73.43
6395;BME280;3230;42.588;23.358;2022-07-21T01:02:07;91445.66;;;17.07;73.26
6395;BME280;3230;42.588;23.358;2022-07-21T01:04:33;91439.06;;;17.05;71.14
6395;BME280;3230;42.588;23.358;2022-07-21T01:07:01;91432.69;;;17.06;71.94
6395;BME280;3230;42.588;23.358;2022-07-21T01:09:27;91435.34;;;17.06;72.25
6395;BME280;3230;42.588;23.358;2022-07-21T01:11:53;91432.34;;;16.99;71.39
6395;BME280;3230;42.588;23.358;2022-07-21T01:14:18;91432.66;;;16.97;74.04
6395;BME280;3230;42.588;23.358;2022-07-21T01:16:44;91423.94;;;16.97;72.21
6395;BME280;3230;42.588;23.358;2022-07-21T01:19:09;91419.56;;;16.92;73.02
6395;BME280;3230;42.588;23.358;2022-07-21T01:21:38;91419.03;;;16.90;72.21
6395;BME280;3230;42.588;23.358;2022-07-21T01:24:04;91416.34;;;16.81;73.10
6395;BME280;3230;42.588;23.358;2022-07-21T01:26:38;91416.34;;;16.81;73.50
6395;BME280;3230;42.588;23.358;2022-07-21T01:29:04;91411.63;;;16.78;74.53
6395;BME280;3230;42.588;23.358;2022-07-21T01:31:30;91415.66;;;16.75;75.22
6395;BME280;3230;42.588;23.358;2022-07-21T01:33:55;91413.03;;;16.75;75.37
6395;BME280;3230;42.588;23.358;2022-07-21T01:36:20;91414.06;;;16.66;75.63
6395;BME280;3230;42.588;23.358;2022-07-21T01:38:46;91406.44;;;16.64;76.84
6395;BME280;3230;42.588;23.358;2022-07-21T01:41:30;91403.66;;;16.69;76.92
6395;BME280;3230;42.588;23.358;2022-07-21T01:44:06;91398.81;;;16.62;77.34
6395;BME280;3230;42.588;23.358;2022-07-21T01:46:34;91406.84;;;16.57;78.72
6395;BME280;3230;42.588;23.358;2022-07-21T01:49:00;91395.78;;;16.55;76.49
6395;BME280;3230;42.588;23.358;2022-07-21T01:51:25;91397.19;;;16.53;75.04
6395;BME280;3230;42.588;23.358;2022-07-21T01:53:52;91401.72;;;16.61;73.33
6395;BME280;3230;42.588;23.358;2022-07-21T01:56:22;91402.69;;;16.65;72.94
6395;BME280;3230;42.588;23.358;2022-07-21T01:58:49;91401.81;;;16.70;72.23
6395;BME280;3230;42.588;23.358;2022-07-21T02:01:20;91398.53;;;16.73;71.71
6395;BME280;3230;42.588;23.358;2022-07-21T02:03:46;91395.00;;;16.77;71.47
6395;BME280;3230;42.588;23.358;2022-07-21T02:06:12;91397.19;;;16.84;70.94
6395;BME280;3230;42.588;23.358;2022-07-21T02:08:38;91392.00;;;16.93;71.11
6395;BME280;3230;42.588;23.358;2022-07-21T02:11:04;91393.91;;;17.01;72.69
6395;BME280;3230;42.588;23.358;2022-07-21T02:13:30;91393.13;;;17.01;73.02
6395;BME280;3230;42.588;23.358;2022-07-21T02:15:56;91394.22;;;17.00;72.80
6395;BME280;3230;42.588;23.358;2022-07-21T02:18:21;91392.94;;;16.97;72.88
6395;BME280;3230;42.588;23.358;2022-07-21T02:20:47;91394.53;;;16.98;72.74
6395;BME280;3230;42.588;23.358;2022-07-21T02:23:14;91400.00;;;17.02;71.74
6395;BME280;3230;42.588;23.358;2022-07-21T02:25:40;91393.13;;;17.01;71.02
6395;BME280;3230;42.588;23.358;2022-07-21T02:28:06;91399.72;;;17.12;70.63
6395;BME280;3230;42.588;23.358;2022-07-21T02:30:31;91398.81;;;17.17;69.98
6395;BME280;3230;42.588;23.358;2022-07-21T02:32:57;91387.91;;;17.18;69.82
6395;BME280;3230;42.588;23.358;2022-07-21T02:35:22;91395.09;;;17.18;69.80
6395;BME280;3230;42.588;23.358;2022-07-21T02:37:48;91386.97;;;17.14;72.19
6395;BME280;3230;42.588;23.358;2022-07-21T02:40:13;91389.13;;;17.12;72.32
6395;BME280;3230;42.588;23.358;2022-07-21T02:42:39;91391.72;;;17.03;72.87
6395;BME280;3230;42.588;23.358;2022-07-21T02:45:09;91389.41;;;17.02;72.97
6395;BME280;3230;42.588;23.358;2022-07-21T02:47:54;91389.72;;;17.00;72.85
6395;BME280;3230;42.588;23.358;2022-07-21T02:50:22;91385.16;;;16.92;72.87
6395;BME280;3230;42.588;23.358;2022-07-21T02:52:47;91388.06;;;16.90;72.95
6395;BME280;3230;42.588;23.358;2022-07-21T02:55:13;91384.28;;;16.83;72.41
6395;BME280;3230;42.588;23.358;2022-07-21T02:57:39;91393.44;;;16.76;72.67
6395;BME280;3230;42.588;23.358;2022-07-21T03:00:07;91390.00;;;16.76;73.00
6395;BME280;3230;42.588;23.358;2022-07-21T03:02:33;91387.38;;;16.76;72.64
6395;BME280;3230;42.588;23.358;2022-07-21T03:04:59;91387.38;;;16.76;72.28
6395;BME280;3230;42.588;23.358;2022-07-21T03:07:24;91392.03;;;16.79;73.15
6395;BME280;3230;42.588;23.358;2022-07-21T03:09:50;91401.84;;;16.78;72.90
6395;BME280;3230;42.588;23.358;2022-07-21T03:12:15;91393.91;;;16.78;73.24
6395;BME280;3230;42.588;23.358;2022-07-21T03:14:41;91393.72;;;16.75;74.30
6395;BME280;3230;42.588;23.358;2022-07-21T03:17:06;91395.16;;;16.81;73.97
6395;BME280;3230;42.588;23.358;2022-07-21T03:19:31;91386.75;;;16.79;73.82
6395;BME280;3230;42.588;23.358;2022-07-21T03:21:57;91390.38;;;16.83;74.20
6395;BME280;3230;42.588;23.358;2022-07-21T03:24:22;91386.44;;;16.81;74.33
6395;BME280;3230;42.588;23.358;2022-07-21T03:26:48;91392.22;;;16.83;73.88
6395;BME280;3230;42.588;23.358;2022-07-21T03:29:13;91381.81;;;16.86;74.33
6395;BME280;3230;42.588;23.358;2022-07-21T03:31:38;91389.63;;;16.91;76.25
6395;BME280;3230;42.588;23.358;2022-07-21T03:34:04;91392.47;;;16.95;74.78
6395;BME280;3230;42.588;23.358;2022-07-21T03:36:29;91387.84;;;17.01;74.37
6395;BME280;3230;42.588;23.358;2022-07-21T03:38:55;91395.03;;;17.09;74.30
6395;BME280;3230;42.588;23.358;2022-07-21T03:41:21;91389.00;;;17.17;74.73
6395;BME280;3230;42.588;23.358;2022-07-21T03:43:46;91397.63;;;17.32;74.19
6395;BME280;3230;42.588;23.358;2022-07-21T03:46:11;91392.09;;;17.59;72.90
6395;BME280;3230;42.588;23.358;2022-07-21T03:48:37;91400.19;;;17.95;70.61
6395;BME280;3230;42.588;23.358;2022-07-21T03:51:03;91397.09;;;18.19;67.35
6395;BME280;3230;42.588;23.358;2022-07-21T03:53:29;91397.41;;;18.17;68.87
6395;BME280;3230;42.588;23.358;2022-07-21T03:55:54;91393.69;;;18.18;70.74
6395;BME280;3230;42.588;23.358;2022-07-21T03:58:19;91399.44;;;18.20;72.68
6395;BME280;3230;42.588;23.358;2022-07-21T04:00:45;91398.03;;;18.23;73.74
6395;BME280;3230;42.588;23.358;2022-07-21T04:03:11;91398.50;;;18.25;74.62
6395;BME280;3230;42.588;23.358;2022-07-21T04:05:38;91406.94;;;18.36;73.54
6395;BME280;3230;42.588;23.358;2022-07-21T04:08:05;91403.50;;;18.44;74.67
6395;BME280;3230;42.588;23.358;2022-07-21T04:10:33;91397.75;;;18.60;74.69
6395;BME280;3230;42.588;23.358;2022-07-21T04:13:01;91398.97;;;18.71;74.86
6395;BME280;3230;42.588;23.358;2022-07-21T04:15:27;91404.41;;;18.83;74.35
6395;BME280;3230;42.588;23.358;2022-07-21T04:17:53;91400.34;;;19.12;74.15
6395;BME280;3230;42.588;23.358;2022-07-21T04:20:19;91401.06;;;19.22;74.78
6395;BME280;3230;42.588;23.358;2022-07-21T04:22:46;91406.50;;;19.43;74.23
6395;BME280;3230;42.588;23.358;2022-07-21T04:25:12;91398.72;;;19.68;74.06
6395;BME280;3230;42.588;23.358;2022-07-21T04:27:38;91406.94;;;19.84;74.55
6395;BME280;3230;42.588;23.358;2022-07-21T04:30:05;91405.66;;;19.90;75.01
6395;BME280;3230;42.588;23.358;2022-07-21T04:32:31;91410.22;;;20.19;74.17
6395;BME280;3230;42.588;23.358;2022-07-21T04:34:56;91411.25;;;20.48;72.70
6395;BME280;3230;42.588;23.358;2022-07-21T04:37:22;91412.63;;;20.75;70.17
6395;BME280;3230;42.588;23.358;2022-07-21T04:39:48;91412.50;;;21.39;69.47
6395;BME280;3230;42.588;23.358;2022-07-21T04:42:13;91409.84;;;24.32;57.82
6395;BME280;3230;42.588;23.358;2022-07-21T04:44:39;91422.38;;;25.84;55.28
6395;BME280;3230;42.588;23.358;2022-07-21T04:47:04;91419.25;;;26.56;52.48
6395;BME280;3230;42.588;23.358;2022-07-21T04:49:30;91425.34;;;28.30;42.80
6395;BME280;3230;42.588;23.358;2022-07-21T04:51:55;91433.44;;;30.61;37.80
6395;BME280;3230;42.588;23.358;2022-07-21T04:54:21;91442.63;;;31.00;35.48
6395;BME280;3230;42.588;23.358;2022-07-21T04:56:47;91438.09;;;33.84;30.30
6395;BME280;3230;42.588;23.358;2022-07-21T04:59:12;91448.47;;;34.67;30.36
6395;BME280;3230;42.588;23.358;2022-07-21T05:01:38;91441.13;;;37.08;27.35
6395;BME280;3230;42.588;23.358;2022-07-21T05:04:05;91443.22;;;37.17;25.30
6395;BME280;3230;42.588;23.358;2022-07-21T05:06:31;91443.13;;;37.50;25.73
6395;BME280;3230;42.588;23.358;2022-07-21T05:08:56;91439.09;;;36.29;25.23
6395;BME280;3230;42.588;23.358;2022-07-21T05:11:22;91443.38;;;35.77;27.01
6395;BME280;3230;42.588;23.358;2022-07-21T05:13:48;91442.72;;;34.85;27.80
6395;BME280;3230;42.588;23.358;2022-07-21T05:16:13;91439.72;;;34.32;29.77
6395;BME280;3230;42.588;23.358;2022-07-21T05:18:38;91436.34;;;34.72;27.37
6395;BME280;3230;42.588;23.358;2022-07-21T05:21:04;91431.81;;;34.41;29.74
6395;BME280;3230;42.588;23.358;2022-07-21T05:23:29;91434.97;;;34.87;27.66
6395;BME280;3230;42.588;23.358;2022-07-21T05:25:55;91437.78;;;34.80;27.41
6395;BME280;3230;42.588;23.358;2022-07-21T05:28:20;91437.84;;;34.77;27.13
6395;BME280;3230;42.588;23.358;2022-07-21T05:30:46;91441.31;;;36.01;26.61
6395;BME280;3230;42.588;23.358;2022-07-21T05:33:11;91442.13;;;37.14;24.96
6395;BME280;3230;42.588;23.358;2022-07-21T05:35:37;91437.59;;;36.61;26.53
6395;BME280;3230;42.588;23.358;2022-07-21T05:38:02;91446.16;;;36.10;28.27
6395;BME280;3230;42.588;23.358;2022-07-21T05:40:27;91444.50;;;36.66;26.40
6395;BME280;3230;42.588;23.358;2022-07-21T05:42:53;91440.94;;;35.63;29.12
6395;BME280;3230;42.588;23.358;2022-07-21T05:45:19;91436.44;;;37.38;25.66
6395;BME280;3230;42.588;23.358;2022-07-21T05:47:44;91442.53;;;37.71;26.34
6395;BME280;3230;42.588;23.358;2022-07-21T05:50:11;91449.28;;;37.54;26.79
6395;BME280;3230;42.588;23.358;2022-07-21T05:52:36;91448.94;;;38.46;23.85
6395;BME280;3230;42.588;23.358;2022-07-21T05:55:03;91448.25;;;39.28;22.50
6395;BME280;3230;42.588;23.358;2022-07-21T05:57:28;91437.13;;;38.49;23.85
6395;BME280;3230;42.588;23.358;2022-07-21T05:59:53;91438.63;;;39.24;23.03
6395;BME280;3230;42.588;23.358;2022-07-21T06:02:19;91430.19;;;38.70;22.67
6395;BME280;3230;42.588;23.358;2022-07-21T06:04:45;91433.19;;;37.98;24.08
6395;BME280;3230;42.588;23.358;2022-07-21T06:07:10;91430.28;;;37.34;24.90
6395;BME280;3230;42.588;23.358;2022-07-21T06:09:35;91427.03;;;37.39;26.03
6395;BME280;3230;42.588;23.358;2022-07-21T06:12:01;91431.81;;;37.64;24.67
6395;BME280;3230;42.588;23.358;2022-07-21T06:14:27;91431.53;;;38.27;24.61
6395;BME280;3230;42.588;23.358;2022-07-21T06:16:52;91432.47;;;39.19;23.45
6395;BME280;3230;42.588;23.358;2022-07-21T06:19:17;91428.31;;;38.93;24.46
6395;BME280;3230;42.588;23.358;2022-07-21T06:21:43;91436.03;;;40.18;22.13
6395;BME280;3230;42.588;23.358;2022-07-21T06:24:09;91431.81;;;39.15;23.30
6395;BME280;3230;42.588;23.358;2022-07-21T06:26:35;91432.41;;;38.49;23.85
6395;BME280;3230;42.588;23.358;2022-07-21T06:29:00;91436.53;;;39.72;21.83
6395;BME280;3230;42.588;23.358;2022-07-21T06:31:26;91435.81;;;39.59;22.87
6395;BME280;3230;42.588;23.358;2022-07-21T06:33:52;91430.66;;;39.83;21.32
6395;BME280;3230;42.588;23.358;2022-07-21T06:36:17;91437.66;;;40.16;22.37
6395;BME280;3230;42.588;23.358;2022-07-21T06:38:43;91433.34;;;40.05;21.88
6395;BME280;3230;42.588;23.358;2022-07-21T06:41:10;91434.06;;;40.28;21.16
6395;BME280;3230;42.588;23.358;2022-07-21T06:43:35;91430.91;;;39.76;21.55
6395;BME280;3230;42.588;23.358;2022-07-21T06:46:01;91433.25;;;39.07;22.56
6395;BME280;3230;42.588;23.358;2022-07-21T06:48:27;91431.16;;;39.24;22.41
6395;BME280;3230;42.588;23.358;2022-07-21T06:50:53;91435.94;;;39.77;22.33
6395;BME280;3230;42.588;23.358;2022-07-21T06:53:19;91437.78;;;39.36;22.76
6395;BME280;3230;42.588;23.358;2022-07-21T06:55:44;91436.03;;;40.77;21.38
6395;BME280;3230;42.588;23.358;2022-07-21T06:58:18;91433.16;;;40.31;21.38
6395;BME280;3230;42.588;23.358;2022-07-21T07:00:45;91433.44;;;40.24;21.82
6395;BME280;3230;42.588;23.358;2022-07-21T07:03:11;91435.31;;;41.14;21.67
6395;BME280;3230;42.588;23.358;2022-07-21T07:05:37;91428.47;;;40.50;21.61
6395;BME280;3230;42.588;23.358;2022-07-21T07:08:03;91432.44;;;41.27;21.61
6395;BME280;3230;42.588;23.358;2022-07-21T07:10:28;91436.41;;;42.15;19.92
6395;BME280;3230;42.588;23.358;2022-07-21T07:12:54;91434.59;;;42.89;19.67
6395;BME280;3230;42.588;23.358;2022-07-21T07:15:21;91441.44;;;42.35;19.97
6395;BME280;3230;42.588;23.358;2022-07-21T07:17:47;91441.59;;;42.65;20.30
6395;BME280;3230;42.588;23.358;2022-07-21T07:20:13;91439.44;;;42.94;18.94
6395;BME280;3230;42.588;23.358;2022-07-21T07:22:38;91436.25;;;43.10;19.14
6395;BME280;3230;42.588;23.358;2022-07-21T07:25:04;91434.84;;;41.71;20.05
6395;BME280;3230;42.588;23.358;2022-07-21T07:27:30;91434.47;;;42.07;20.77
6395;BME280;3230;42.588;23.358;2022-07-21T07:29:55;91427.66;;;40.90;21.29
6395;BME280;3230;42.588;23.358;2022-07-21T07:32:21;91428.00;;;41.48;20.77
6395;BME280;3230;42.588;23.358;2022-07-21T07:34:46;91436.69;;;41.75;20.43
6395;BME280;3230;42.588;23.358;2022-07-21T07:37:12;91422.16;;;40.72;21.10
6395;BME280;3230;42.588;23.358;2022-07-21T07:39:37;91431.09;;;40.54;21.87
6395;BME280;3230;42.588;23.358;2022-07-21T07:42:04;91422.97;;;40.09;22.61
6395;BME280;3230;42.588;23.358;2022-07-21T07:44:30;91421.44;;;41.46;21.29
6395;BME280;3230;42.588;23.358;2022-07-21T07:46:56;91422.97;;;41.28;21.67
6395;BME280;3230;42.588;23.358;2022-07-21T07:49:21;91429.38;;;41.06;20.94
6395;BME280;3230;42.588;23.358;2022-07-21T07:51:47;91426.19;;;40.49;21.67
6395;BME280;3230;42.588;23.358;2022-07-21T07:54:14;91425.91;;;40.56;21.76
6395;BME280;3230;42.588;23.358;2022-07-21T07:56:39;91425.72;;;41.28;21.20
6395;BME280;3230;42.588;23.358;2022-07-21T07:59:04;91418.81;;;40.96;21.32
6395;BME280;3230;42.588;23.358;2022-07-21T08:01:30;91416.22;;;41.38;21.16
6395;BME280;3230;42.588;23.358;2022-07-21T08:03:55;91415.81;;;42.11;19.47
6395;BME280;3230;42.588;23.358;2022-07-21T08:06:21;91426.56;;;42.76;20.02
6395;BME280;3230;42.588;23.358;2022-07-21T08:08:47;91409.50;;;41.67;19.09
6395;BME280;3230;42.588;23.358;2022-07-21T08:11:12;91414.84;;;42.23;19.34
6395;BME280;3230;42.588;23.358;2022-07-21T08:13:38;91414.66;;;40.63;20.72
6395;BME280;3230;42.588;23.358;2022-07-21T08:16:04;91405.69;;;40.90;19.53
6395;BME280;3230;42.588;23.358;2022-07-21T08:18:30;91413.47;;;40.83;20.07
6395;BME280;3230;42.588;23.358;2022-07-21T08:20:55;91413.13;;;40.62;20.37
6395;BME280;3230;42.588;23.358;2022-07-21T08:23:20;91408.91;;;41.45;20.23
6395;BME280;3230;42.588;23.358;2022-07-21T08:25:46;91409.31;;;41.80;19.64
6395;BME280;3230;42.588;23.358;2022-07-21T08:28:12;91413.31;;;43.68;18.69
6395;BME280;3230;42.588;23.358;2022-07-21T08:30:38;91411.72;;;43.22;19.08
6395;BME280;3230;42.588;23.358;2022-07-21T08:33:04;91411.16;;;43.33;18.69
6395;BME280;3230;42.588;23.358;2022-07-21T08:35:29;91415.03;;;43.80;17.62
6395;BME280;3230;42.588;23.358;2022-07-21T08:38:07;91403.66;;;43.09;18.54
6395;BME280;3230;42.588;23.358;2022-07-21T08:40:36;91417.69;;;43.74;18.63
6395;BME280;3230;42.588;23.358;2022-07-21T08:43:02;91414.31;;;45.01;16.40
6395;BME280;3230;42.588;23.358;2022-07-21T08:45:28;91407.22;;;43.64;17.68
6395;BME280;3230;42.588;23.358;2022-07-21T08:47:56;91402.94;;;42.84;17.25
6395;BME280;3230;42.588;23.358;2022-07-21T08:50:23;91403.50;;;42.88;17.65
6395;BME280;3230;42.588;23.358;2022-07-21T08:52:49;91403.50;;;42.88;17.65
6395;BME280;3230;42.588;23.358;2022-07-21T08:55:15;91397.84;;;41.82;19.64
6395;BME280;3230;42.588;23.358;2022-07-21T08:57:41;91396.41;;;39.43;20.33
6395;BME280;3230;42.588;23.358;2022-07-21T09:00:08;91391.97;;;40.22;20.66
6395;BME280;3230;42.588;23.358;2022-07-21T09:02:35;91393.03;;;41.49;20.06
6395;BME280;3230;42.588;23.358;2022-07-21T09:05:02;91389.97;;;40.91;19.43
6395;BME280;3230;42.588;23.358;2022-07-21T09:07:29;91398.00;;;40.07;20.56
6395;BME280;3230;42.588;23.358;2022-07-21T09:10:11;91387.63;;;40.52;20.20
6395;BME280;3230;42.588;23.358;2022-07-21T09:12:48;91386.44;;;39.14;22.07
6395;BME280;3230;42.588;23.358;2022-07-21T09:15:15;91375.53;;;38.18;22.23
6395;BME280;3230;42.588;23.358;2022-07-21T09:17:41;91380.38;;;36.58;23.55
6395;BME280;3230;42.588;23.358;2022-07-21T09:20:24;91382.34;;;35.14;25.42
6395;BME280;3230;42.588;23.358;2022-07-21T09:28:17;91373.09;;;32.65;31.32
6395;BME280;3230;42.588;23.358;2022-07-21T09:33:26;91371.25;;;32.13;29.03
6395;BME280;3230;42.588;23.358;2022-07-21T09:38:50;91365.28;;;31.06;32.46
6395;BME280;3230;42.588;23.358;2022-07-21T09:41:18;91375.00;;;30.89;32.01
6395;BME280;3230;42.588;23.358;2022-07-21T09:43:49;91372.63;;;31.13;33.39
6395;BME280;3230;42.588;23.358;2022-07-21T09:46:20;91360.81;;;31.48;34.62
6395;BME280;3230;42.588;23.358;2022-07-21T09:48:51;91362.00;;;31.47;31.17
6395;BME280;3230;42.588;23.358;2022-07-21T09:51:36;91370.94;;;31.40;31.73
6395;BME280;3230;42.588;23.358;2022-07-21T09:54:04;91383.56;;;30.73;32.16
6395;BME280;3230;42.588;23.358;2022-07-21T09:56:33;91368.53;;;30.43;32.17
6395;BME280;3230;42.588;23.358;2022-07-21T09:59:00;91360.81;;;29.87;31.84
6395;BME280;3230;42.588;23.358;2022-07-21T10:01:27;91361.63;;;30.06;31.95
6395;BME280;3230;42.588;23.358;2022-07-21T10:03:54;91369.28;;;30.47;33.83
6395;BME280;3230;42.588;23.358;2022-07-21T10:06:23;91359.63;;;30.60;33.60
6395;BME280;3230;42.588;23.358;2022-07-21T10:08:49;91358.47;;;30.65;30.40
6395;BME280;3230;42.588;23.358;2022-07-21T10:11:15;91367.78;;;30.46;32.66
6395;BME280;3230;42.588;23.358;2022-07-21T10:13:41;91350.81;;;30.20;34.31
6395;BME280;3230;42.588;23.358;2022-07-21T10:16:11;91358.91;;;30.17;34.32
6395;BME280;3230;42.588;23.358;2022-07-21T10:24:41;91352.31;;;30.39;32.46
6395;BME280;3230;42.588;23.358;2022-07-21T10:27:10;91348.88;;;29.81;33.64
6395;BME280;3230;42.588;23.358;2022-07-21T10:29:57;91356.22;;;30.17;32.40
6395;BME280;3230;42.588;23.358;2022-07-21T10:32:26;91344.25;;;29.78;32.33
6395;BME280;3230;42.588;23.358;2022-07-21T10:34:57;91343.06;;;29.90;33.55
6395;BME280;3230;42.588;23.358;2022-07-21T10:40:50;91339.63;;;30.04;32.23
6395;BME280;3230;42.588;23.358;2022-07-21T10:48:02;91338.47;;;29.87;33.83
6395;BME280;3230;42.588;23.358;2022-07-21T10:50:36;91343.88;;;30.15;34.41
6395;BME280;3230;42.588;23.358;2022-07-21T10:53:05;91341.91;;;29.73;31.94
6395;BME280;3230;42.588;23.358;2022-07-21T10:55:34;91340.75;;;29.70;32.54
6395;BME280;3230;42.588;23.358;2022-07-21T10:58:10;91331.53;;;29.96;33.38
6395;BME280;3230;42.588;23.358;2022-07-21T11:00:38;91331.53;;;30.11;32.89
6395;BME280;3230;42.588;23.358;2022-07-21T11:03:34;91332.66;;;30.35;32.50
6395;BME280;3230;42.588;23.358;2022-07-21T11:11:29;91321.47;;;30.26;32.40
6395;BME280;3230;42.588;23.358;2022-07-21T11:21:55;91315.31;;;30.04;33.07
6395;BME280;3230;42.588;23.358;2022-07-21T11:24:22;91310.22;;;30.38;30.20
6395;BME280;3230;42.588;23.358;2022-07-21T11:27:03;91308.34;;;30.24;31.46
6395;BME280;3230;42.588;23.358;2022-07-21T11:29:30;91310.66;;;29.72;30.12
6395;BME280;3230;42.588;23.358;2022-07-21T11:31:57;91319.91;;;30.21;31.67
6395;BME280;3230;42.588;23.358;2022-07-21T11:34:24;91314.13;;;30.23;30.53
6395;BME280;3230;42.588;23.358;2022-07-21T11:37:00;91314.16;;;30.15;30.95
6395;BME280;3230;42.588;23.358;2022-07-21T11:39:26;91308.34;;;30.17;30.57
6395;BME280;3230;42.588;23.358;2022-07-21T11:41:51;91311.78;;;30.28;30.90
6395;BME280;3230;42.588;23.358;2022-07-21T11:44:23;91300.59;;;30.34;31.46
6395;BME280;3230;42.588;23.358;2022-07-21T11:46:54;91287.75;;;30.63;30.75
6395;BME280;3230;42.588;23.358;2022-07-21T11:49:21;91295.56;;;30.50;29.69
6395;BME280;3230;42.588;23.358;2022-07-21T11:54:49;91286.25;;;30.47;31.05
6395;BME280;3230;42.588;23.358;2022-07-21T11:57:17;91295.91;;;30.59;32.47
6395;BME280;3230;42.588;23.358;2022-07-21T11:59:44;91295.88;;;30.67;30.69
6395;BME280;3230;42.588;23.358;2022-07-21T12:02:24;91303.91;;;30.81;30.13
6395;BME280;3230;42.588;23.358;2022-07-21T12:04:55;91296.63;;;30.74;29.83
6395;BME280;3230;42.588;23.358;2022-07-21T12:07:25;91293.50;;;30.79;31.17
6395;BME280;3230;42.588;23.358;2022-07-21T12:12:35;91297.25;;;31.04;31.59
6395;BME280;3230;42.588;23.358;2022-07-21T12:17:41;91290.25;;;31.17;29.98
6395;BME280;3230;42.588;23.358;2022-07-21T12:20:08;91281.81;;;30.97;30.83
6395;BME280;3230;42.588;23.358;2022-07-21T12:25:00;91284.91;;;30.99;29.66
6395;BME280;3230;42.588;23.358;2022-07-21T12:27:25;91287.16;;;31.15;28.96
6395;BME280;3230;42.588;23.358;2022-07-21T12:29:51;91285.63;;;31.14;30.04
6395;BME280;3230;42.588;23.358;2022-07-21T12:32:38;91274.03;;;31.06;30.16
6395;BME280;3230;42.588;23.358;2022-07-21T12:35:04;91269.78;;;31.05;29.93
6395;BME280;3230;42.588;23.358;2022-07-21T12:37:55;91276.00;;;31.09;29.35
6395;BME280;3230;42.588;23.358;2022-07-21T12:40:21;91277.41;;;31.29;31.43
6395;BME280;3230;42.588;23.358;2022-07-21T12:42:47;91273.09;;;31.35;30.07
6395;BME280;3230;42.588;23.358;2022-07-21T12:45:15;91262.66;;;31.37;31.38
6395;BME280;3230;42.588;23.358;2022-07-21T12:47:41;91278.91;;;31.37;29.55
6395;BME280;3230;42.588;23.358;2022-07-21T12:50:12;91265.28;;;31.48;28.99
6395;BME280;3230;42.588;23.358;2022-07-21T12:52:38;91263.41;;;31.41;28.90
6395;BME280;3230;42.588;23.358;2022-07-21T12:55:04;91263.00;;;31.46;29.12
6395;BME280;3230;42.588;23.358;2022-07-21T12:57:32;91257.22;;;31.40;31.34
6395;BME280;3230;42.588;23.358;2022-07-21T12:59:58;91265.69;;;31.46;33.14
6395;BME280;3230;42.588;23.358;2022-07-21T13:02:25;91262.47;;;31.02;31.69
6395;BME280;3230;42.588;23.358;2022-07-21T13:04:51;91256.72;;;30.97;32.74
6395;BME280;3230;42.588;23.358;2022-07-21T13:07:17;91259.38;;;31.04;32.01
6395;BME280;3230;42.588;23.358;2022-07-21T13:09:42;91249.44;;;30.83;32.10
6395;BME280;3230;42.588;23.358;2022-07-21T13:12:11;91253.94;;;31.07;33.64
6395;BME280;3230;42.588;23.358;2022-07-21T13:14:36;91259.28;;;31.25;33.72
6395;BME280;3230;42.588;23.358;2022-07-21T13:17:02;91250.47;;;31.07;32.58
6395;BME280;3230;42.588;23.358;2022-07-21T13:19:27;91253.56;;;31.09;31.66
6395;BME280;3230;42.588;23.358;2022-07-21T13:21:53;91242.19;;;30.61;32.58
6395;BME280;3230;42.588;23.358;2022-07-21T13:24:19;91247.47;;;30.90;33.54
6395;BME280;3230;42.588;23.358;2022-07-21T13:26:44;91237.00;;;31.00;33.73
6395;BME280;3230;42.588;23.358;2022-07-21T13:29:10;91247.41;;;31.01;33.04
6395;BME280;3230;42.588;23.358;2022-07-21T13:31:35;91245.50;;;30.94;33.63
6395;BME280;3230;42.588;23.358;2022-07-21T13:34:03;91243.59;;;30.95;33.89
6395;BME280;3230;42.588;23.358;2022-07-21T13:36:28;91246.63;;;30.97;33.59
6395;BME280;3230;42.588;23.358;2022-07-21T13:38:54;91243.19;;;30.93;32.46
6395;BME280;3230;42.588;23.358;2022-07-21T13:41:19;91237.69;;;31.07;33.52
6395;BME280;3230;42.588;23.358;2022-07-21T13:43:45;91242.22;;;31.29;33.73
6395;BME280;3230;42.588;23.358;2022-07-21T13:46:10;91246.16;;;31.20;33.40
6395;BME280;3230;42.588;23.358;2022-07-21T13:48:36;91241.06;;;31.26;33.72
6395;BME280;3230;42.588;23.358;2022-07-21T13:51:03;91233.84;;;31.12;33.24
6395;BME280;3230;42.588;23.358;2022-07-21T13:53:28;91236.88;;;31.18;33.89
6395;BME280;3230;42.588;23.358;2022-07-21T13:55:54;91238.25;;;30.77;34.69
6395;BME280;3230;42.588;23.358;2022-07-21T13:58:20;91237.31;;;31.09;34.60